Time;durP1;ratioP1;P1;durP2;ratioP2;P2;SDS_P1;SDS_P2;PMS_P1;PMS_P2;Temp;Humidity;BMP_temperature;BMP_pressure;BME280_temperature;BME280_humidity;BME280_pressure;Samples;Min_cycle;Max_cycle;Signal;HPM_P1;HPM_P2
2022/06/10 00:00:41;;;;;;;4.43;1.38;;;;;;;;;;5040476;28;20413;-72
2022/06/10 00:03:07;;;;;;;2.80;1.38;;;;;;;;;;5044372;28;20478;-73
2022/06/10 00:05:36;;;;;;;1.52;1.20;;;;;;;;;;5026486;28;20544;-72
2022/06/10 00:08:07;;;;;;;4.43;1.27;;;;;;;;;;5044042;28;20044;-73
2022/06/10 00:10:33;;;;;;;1.52;1.30;;;;;;;;;;5044104;28;20508;-73
2022/06/10 00:12:59;;;;;;;3.15;1.42;;;;;;;;;;5044483;28;20036;-73
2022/06/10 00:15:24;;;;;;;1.98;1.40;;;;;;;;;;5044179;28;20040;-73
2022/06/10 00:17:50;;;;;;;3.03;1.23;;;;;;;;;;5044658;28;20155;-73
2022/06/10 00:20:18;;;;;;;5.75;1.50;;;;;;;;;;5025264;28;20051;-73
2022/06/10 00:22:44;;;;;;;4.07;1.50;;;;;;;;;;5043371;28;20037;-73
2022/06/10 00:25:10;;;;;;;4.03;1.33;;;;;;;;;;5025619;28;20035;-72
2022/06/10 00:27:36;;;;;;;5.55;1.58;;;;;;;;;;5025928;28;20911;-73
2022/06/10 00:30:05;;;;;;;3.75;1.40;;;;;;;;;;5009522;28;20466;-73
2022/06/10 00:32:30;;;;;;;2.03;1.40;;;;;;;;;;5025694;28;20041;-73
2022/06/10 00:34:56;;;;;;;3.83;1.73;;;;;;;;;;5043684;28;20044;-73
2022/06/10 00:37:21;;;;;;;3.33;1.70;;;;;;;;;;5043598;28;20051;-73
2022/06/10 00:39:47;;;;;;;5.97;1.63;;;;;;;;;;5025296;28;20047;-73
2022/06/10 00:42:12;;;;;;;7.05;1.60;;;;;;;;;;5043379;28;20029;-72
2022/06/10 00:44:44;;;;;;;4.63;1.70;;;;;;;;;;5043913;28;20128;-73
2022/06/10 00:47:35;;;;;;;2.95;1.65;;;;;;;;;;5026366;28;20060;-73
2022/06/10 00:50:24;;;;;;;4.10;1.80;;;;;;;;;;5023311;28;20040;-72
2022/06/10 00:52:58;;;;;;;3.80;1.42;;;;;;;;;;5042386;28;20600;-72
2022/06/10 00:55:28;;;;;;;4.03;1.48;;;;;;;;;;5042463;28;20123;-72
2022/06/10 00:58:01;;;;;;;5.15;1.73;;;;;;;;;;5009055;28;20119;-72
2022/06/10 01:00:28;;;;;;;3.17;1.65;;;;;;;;;;5043106;28;20033;-72
2022/06/10 01:02:54;;;;;;;5.97;1.52;;;;;;;;;;5043627;28;20029;-72
2022/06/10 01:05:24;;;;;;;3.75;1.50;;;;;;;;;;5042756;28;20340;-72
2022/06/10 01:07:57;;;;;;;3.58;1.88;;;;;;;;;;5025077;28;20044;-72
2022/06/10 01:10:23;;;;;;;6.20;1.83;;;;;;;;;;5024528;28;20060;-72
2022/06/10 01:12:52;;;;;;;2.22;1.33;;;;;;;;;;5024904;28;20520;-72
2022/06/10 01:15:23;;;;;;;5.07;1.55;;;;;;;;;;5042120;28;20037;-72
2022/06/10 01:18:10;;;;;;;3.65;1.65;;;;;;;;;;5042795;28;20036;-73
2022/06/10 01:20:45;;;;;;;10.25;3.20;;;;;;;;;;5042999;28;20040;-73
2022/06/10 01:23:41;;;;;;;6.72;1.63;;;;;;;;;;5024780;28;20032;-72
2022/06/10 01:30:25;;;;;;;4.55;1.80;;;;;;;;;;5012535;28;20156;-73
2022/06/10 01:33:04;;;;;;;3.42;1.95;;;;;;;;;;4941704;29;20190;-73
2022/06/10 01:35:53;;;;;;;2.00;1.50;;;;;;;;;;5032368;28;20054;-73
2022/06/10 01:38:28;;;;;;;4.90;1.98;;;;;;;;;;5041210;28;20040;-73
2022/06/10 01:41:19;;;;;;;3.10;1.38;;;;;;;;;;5042614;28;20029;-72
2022/06/10 01:44:09;;;;;;;4.97;1.83;;;;;;;;;;5042275;28;20081;-73
2022/06/10 01:46:38;;;;;;;4.15;1.70;;;;;;;;;;5041975;28;20473;-73
2022/06/10 01:49:10;;;;;;;2.63;1.48;;;;;;;;;;5038474;28;20087;-73
2022/06/10 01:51:45;;;;;;;2.78;1.80;;;;;;;;;;5021568;28;20128;-73
2022/06/10 01:54:28;;;;;;;3.05;1.67;;;;;;;;;;5041225;28;20548;-73
2022/06/10 01:56:58;;;;;;;2.60;1.40;;;;;;;;;;5041955;28;20039;-73
2022/06/10 01:59:31;;;;;;;4.63;1.60;;;;;;;;;;5041095;28;20051;-73
2022/06/10 02:02:06;;;;;;;3.17;1.90;;;;;;;;;;5041699;28;20037;-73
2022/06/10 02:04:39;;;;;;;4.35;1.60;;;;;;;;;;5041591;28;20025;-73
2022/06/10 02:07:11;;;;;;;1.80;1.70;;;;;;;;;;5041675;28;20045;-73
2022/06/10 02:09:51;;;;;;;4.78;1.40;;;;;;;;;;5040194;28;20033;-73
2022/06/10 02:12:28;;;;;;;3.72;2.55;;;;;;;;;;5024069;28;20084;-73
2022/06/10 02:14:59;;;;;;;2.97;1.60;;;;;;;;;;5041410;28;20960;-73
2022/06/10 02:17:29;;;;;;;1.67;1.40;;;;;;;;;;5042265;28;20413;-72
2022/06/10 02:19:58;;;;;;;3.53;1.95;;;;;;;;;;5041426;28;20033;-73
2022/06/10 02:22:35;;;;;;;6.75;1.55;;;;;;;;;;5023647;28;20033;-72
2022/06/10 02:25:08;;;;;;;3.08;1.58;;;;;;;;;;5023415;28;20069;-72
2022/06/10 02:27:40;;;;;;;5.57;1.70;;;;;;;;;;5041665;28;20047;-73
2022/06/10 02:30:14;;;;;;;5.20;2.28;;;;;;;;;;5041544;28;20052;-73
2022/06/10 02:32:41;;;;;;;8.23;1.70;;;;;;;;;;5023748;28;20118;-73
2022/06/10 02:35:08;;;;;;;1.50;1.40;;;;;;;;;;5042017;28;20047;-73
2022/06/10 02:37:44;;;;;;;2.83;1.38;;;;;;;;;;5023252;28;20029;-73
2022/06/10 02:40:30;;;;;;;5.00;1.40;;;;;;;;;;5040823;28;20036;-73
2022/06/10 02:43:09;;;;;;;2.10;1.60;;;;;;;;;;5040693;28;20044;-73
2022/06/10 02:45:41;;;;;;;3.03;1.40;;;;;;;;;;5022946;28;20536;-73
2022/06/10 02:48:25;;;;;;;3.03;1.85;;;;;;;;;;5039742;28;20528;-73
2022/06/10 02:50:51;;;;;;;2.65;1.50;;;;;;;;;;5023793;28;20136;-73
2022/06/10 02:53:16;;;;;;;7.10;1.50;;;;;;;;;;5041285;28;20120;-73
2022/06/10 02:55:42;;;;;;;3.90;1.63;;;;;;;;;;5040908;28;20083;-72
2022/06/10 03:01:13;;;;;;;4.22;1.52;;;;;;;;;;5041546;28;20557;-73
2022/06/10 03:04:09;;;;;;;5.75;1.90;;;;;;;;;;5040564;28;20097;-73
2022/06/10 03:06:43;;;;;;;1.73;1.50;;;;;;;;;;5040573;28;20115;-73
2022/06/10 03:09:18;;;;;;;2.53;1.73;;;;;;;;;;5040109;28;20033;-73
2022/06/10 03:11:58;;;;;;;1.73;1.38;;;;;;;;;;5023709;28;20064;-73
2022/06/10 03:14:35;;;;;;;3.42;1.63;;;;;;;;;;5041176;28;20257;-73
2022/06/10 03:17:29;;;;;;;4.25;1.50;;;;;;;;;;5040586;28;20446;-73
2022/06/10 03:20:16;;;;;;;3.42;1.60;;;;;;;;;;5022402;28;20039;-73
2022/06/10 03:23:03;;;;;;;6.53;2.72;;;;;;;;;;5041195;28;20033;-73
2022/06/10 03:25:31;;;;;;;1.90;1.40;;;;;;;;;;5040842;28;20040;-72
2022/06/10 03:28:10;;;;;;;3.22;1.40;;;;;;;;;;5040318;28;20045;-72
2022/06/10 03:30:43;;;;;;;2.35;2.17;;;;;;;;;;5041621;28;20436;-72
2022/06/10 03:33:21;;;;;;;6.60;1.50;;;;;;;;;;5023542;28;20033;-72
2022/06/10 03:36:04;;;;;;;3.08;1.50;;;;;;;;;;5024859;28;20039;-72
2022/06/10 03:38:37;;;;;;;1.67;1.50;;;;;;;;;;5025656;28;20029;-72
2022/06/10 03:41:03;;;;;;;3.38;1.42;;;;;;;;;;5010505;28;20127;-71
2022/06/10 03:43:38;;;;;;;2.60;1.42;;;;;;;;;;5026659;28;20449;-71
2022/06/10 03:46:11;;;;;;;4.57;1.38;;;;;;;;;;5044738;28;20036;-72
2022/06/10 03:48:40;;;;;;;3.55;1.30;;;;;;;;;;5042016;28;20140;-71
2022/06/10 03:51:08;;;;;;;3.80;1.40;;;;;;;;;;5027761;28;20028;-72
2022/06/10 03:53:34;;;;;;;4.45;1.58;;;;;;;;;;5043738;28;20516;-72
2022/06/10 03:55:59;;;;;;;1.80;1.23;;;;;;;;;;5044956;28;20033;-72
2022/06/10 03:58:25;;;;;;;3.17;1.80;;;;;;;;;;5026606;28;20033;-72
2022/06/10 04:00:51;;;;;;;2.22;1.30;;;;;;;;;;5042558;28;20485;-72
2022/06/10 04:03:16;;;;;;;8.93;1.50;;;;;;;;;;5044165;28;20763;-72
2022/06/10 04:05:42;;;;;;;5.72;1.45;;;;;;;;;;5026217;28;20044;-72
2022/06/10 04:08:08;;;;;;;3.53;1.55;;;;;;;;;;5026278;28;20036;-72
2022/06/10 04:10:34;;;;;;;4.40;1.30;;;;;;;;;;5025363;28;20037;-72
2022/06/10 04:13:00;;;;;;;2.42;1.25;;;;;;;;;;5026384;28;20110;-72
2022/06/10 04:15:27;;;;;;;4.28;1.58;;;;;;;;;;5042514;28;20048;-72
2022/06/10 04:17:54;;;;;;;8.40;2.00;;;;;;;;;;5043179;28;20037;-72
2022/06/10 04:20:23;;;;;;;2.05;1.33;;;;;;;;;;5042422;28;20048;-71
2022/06/10 04:22:49;;;;;;;1.77;1.20;;;;;;;;;;5043303;28;20041;-72
2022/06/10 04:25:15;;;;;;;5.25;1.65;;;;;;;;;;5024971;28;20041;-72
2022/06/10 04:27:41;;;;;;;2.05;1.33;;;;;;;;;;5043404;28;20489;-71
2022/06/10 04:30:08;;;;;;;6.28;1.60;;;;;;;;;;5043770;28;20124;-72
2022/06/10 04:32:33;;;;;;;2.38;1.30;;;;;;;;;;5025949;28;20036;-72
2022/06/10 04:34:59;;;;;;;4.43;1.30;;;;;;;;;;5008974;28;20394;-71
2022/06/10 04:37:25;;;;;;;3.08;2.13;;;;;;;;;;5042891;28;20037;-72
2022/06/10 04:39:51;;;;;;;3.85;1.60;;;;;;;;;;5025151;28;20051;-72
2022/06/10 04:42:16;;;;;;;4.95;1.13;;;;;;;;;;5042879;28;20045;-72
2022/06/10 04:44:45;;;;;;;3.47;1.60;;;;;;;;;;5042912;28;20020;-73
2022/06/10 04:47:10;;;;;;;3.97;1.33;;;;;;;;;;5042196;28;20036;-71
2022/06/10 04:49:36;;;;;;;3.08;1.42;;;;;;;;;;5021730;28;20401;-72
2022/06/10 04:52:03;;;;;;;4.95;1.73;;;;;;;;;;5043143;28;20051;-72
2022/06/10 04:54:29;;;;;;;1.85;1.10;;;;;;;;;;5043195;28;20110;-71
2022/06/10 04:56:54;;;;;;;2.42;1.38;;;;;;;;;;5024557;28;20045;-72
2022/06/10 04:59:20;;;;;;;1.65;1.30;;;;;;;;;;5041783;28;20186;-72
2022/06/10 05:01:46;;;;;;;2.13;1.40;;;;;;;;;;5042783;28;20075;-74
2022/06/10 05:04:11;;;;;;;2.85;1.48;;;;;;;;;;5025301;28;20040;-70
2022/06/10 05:06:36;;;;;;;4.55;1.48;;;;;;;;;;5043288;28;20037;-71
2022/06/10 05:09:02;;;;;;;1.38;1.25;;;;;;;;;;5042947;28;20041;-71
2022/06/10 05:11:28;;;;;;;3.22;1.50;;;;;;;;;;5042549;28;20029;-70
2022/06/10 05:13:53;;;;;;;3.45;1.40;;;;;;;;;;5043995;28;20029;-70
2022/06/10 05:16:19;;;;;;;3.28;1.50;;;;;;;;;;5043643;28;20040;-71
2022/06/10 05:18:44;;;;;;;2.08;1.25;;;;;;;;;;5027597;28;20059;-72
2022/06/10 05:21:10;;;;;;;2.78;1.30;;;;;;;;;;5009719;28;21324;-72
2022/06/10 05:23:36;;;;;;;3.28;1.50;;;;;;;;;;5026366;28;20489;-73
2022/06/10 05:26:02;;;;;;;3.53;1.35;;;;;;;;;;5009882;28;20082;-71
2022/06/10 05:28:27;;;;;;;3.00;1.60;;;;;;;;;;5026532;28;20032;-72
2022/06/10 05:30:53;;;;;;;3.53;1.25;;;;;;;;;;5026233;28;20028;-72
2022/06/10 05:33:19;;;;;;;2.13;1.40;;;;;;;;;;5026164;28;20090;-72
2022/06/10 05:35:45;;;;;;;3.50;1.40;;;;;;;;;;5025552;28;20089;-73
2022/06/10 05:38:11;;;;;;;2.95;1.38;;;;;;;;;;5043666;28;20040;-73
2022/06/10 05:40:37;;;;;;;4.88;1.55;;;;;;;;;;5005682;28;20037;-73
2022/06/10 05:43:04;;;;;;;1.83;1.45;;;;;;;;;;5025141;28;20135;-70
2022/06/10 05:45:30;;;;;;;5.70;1.80;;;;;;;;;;5007881;28;20095;-74
2022/06/10 05:48:00;;;;;;;3.20;1.17;;;;;;;;;;5042141;28;20041;-71
2022/06/10 05:50:38;;;;;;;6.07;1.48;;;;;;;;;;5024291;28;20033;-71
2022/06/10 05:53:07;;;;;;;4.20;1.52;;;;;;;;;;5024562;28;20028;-72
2022/06/10 05:55:34;;;;;;;3.97;1.42;;;;;;;;;;5022992;28;20033;-72
2022/06/10 05:58:00;;;;;;;2.17;1.48;;;;;;;;;;5043303;28;20052;-72
2022/06/10 06:00:28;;;;;;;2.35;1.50;;;;;;;;;;5005903;28;20071;-72
2022/06/10 06:02:54;;;;;;;2.83;1.48;;;;;;;;;;5042619;28;20051;-72
2022/06/10 06:05:21;;;;;;;3.72;1.75;;;;;;;;;;5042624;28;20110;-72
2022/06/10 06:07:51;;;;;;;2.13;1.20;;;;;;;;;;5025778;28;20095;-72
2022/06/10 06:10:22;;;;;;;3.10;1.50;;;;;;;;;;5024488;28;20052;-73
2022/06/10 06:12:48;;;;;;;3.47;1.83;;;;;;;;;;5009228;28;20040;-73
2022/06/10 06:15:14;;;;;;;3.05;1.70;;;;;;;;;;5024795;28;20037;-73
2022/06/10 06:17:41;;;;;;;4.82;1.40;;;;;;;;;;5008583;28;20044;-72
2022/06/10 06:20:07;;;;;;;3.00;1.60;;;;;;;;;;5024268;28;20040;-71
2022/06/10 06:22:33;;;;;;;1.90;1.30;;;;;;;;;;5043603;28;20142;-73
2022/06/10 06:24:58;;;;;;;4.80;1.45;;;;;;;;;;5024590;28;20489;-73
2022/06/10 06:27:24;;;;;;;4.50;1.33;;;;;;;;;;5009371;28;20540;-73
2022/06/10 06:29:50;;;;;;;2.42;1.98;;;;;;;;;;5021220;28;20182;-73
2022/06/10 06:32:15;;;;;;;5.22;1.50;;;;;;;;;;5042900;28;20036;-76
2022/06/10 06:34:41;;;;;;;1.95;1.60;;;;;;;;;;5023448;28;20040;-75
2022/06/10 06:37:10;;;;;;;3.30;1.50;;;;;;;;;;5041209;28;20036;-74
2022/06/10 06:39:36;;;;;;;4.85;1.77;;;;;;;;;;5039707;28;20032;-75
2022/06/10 06:42:03;;;;;;;8.57;1.90;;;;;;;;;;5041569;28;20032;-76
2022/06/10 06:44:40;;;;;;;3.45;1.67;;;;;;;;;;5019587;28;20025;-73
2022/06/10 06:47:11;;;;;;;3.03;1.50;;;;;;;;;;5041462;28;20089;-76
2022/06/10 06:49:36;;;;;;;4.35;1.60;;;;;;;;;;5021449;28;20040;-73
2022/06/10 06:52:03;;;;;;;3.75;1.70;;;;;;;;;;5041781;28;20047;-75
2022/06/10 06:54:29;;;;;;;5.85;1.60;;;;;;;;;;5041092;28;20051;-74
2022/06/10 06:56:54;;;;;;;4.28;1.83;;;;;;;;;;5041427;28;20032;-74
2022/06/10 06:59:20;;;;;;;3.17;1.83;;;;;;;;;;5022514;28;20040;-74
2022/06/10 07:01:46;;;;;;;5.13;1.65;;;;;;;;;;5040610;28;20076;-75
2022/06/10 07:04:11;;;;;;;2.85;1.60;;;;;;;;;;5023310;28;20111;-74
2022/06/10 07:06:38;;;;;;;3.42;1.50;;;;;;;;;;5041429;28;20033;-75
2022/06/10 07:09:04;;;;;;;2.55;1.90;;;;;;;;;;5023212;28;20047;-74
2022/06/10 07:11:31;;;;;;;2.20;1.77;;;;;;;;;;5039970;28;20032;-73
2022/06/10 07:13:59;;;;;;;3.47;1.75;;;;;;;;;;5041467;28;20029;-75
2022/06/10 07:16:25;;;;;;;5.55;1.83;;;;;;;;;;5041052;28;20043;-74
2022/06/10 07:18:52;;;;;;;3.88;2.38;;;;;;;;;;5040451;28;20033;-75
2022/06/10 07:21:17;;;;;;;3.85;1.25;;;;;;;;;;5023047;28;20037;-73
2022/06/10 07:23:43;;;;;;;3.50;2.03;;;;;;;;;;5040429;28;20080;-73
2022/06/10 07:26:09;;;;;;;7.18;1.75;;;;;;;;;;5041120;28;20477;-75
2022/06/10 07:28:34;;;;;;;2.90;2.03;;;;;;;;;;5040660;28;20053;-75
2022/06/10 07:31:00;;;;;;;3.92;1.60;;;;;;;;;;5006091;28;20552;-74
2022/06/10 07:33:26;;;;;;;3.97;1.80;;;;;;;;;;5040327;28;20140;-74
2022/06/10 07:35:51;;;;;;;3.55;1.75;;;;;;;;;;5023038;28;20043;-74
2022/06/10 07:38:17;;;;;;;9.43;1.90;;;;;;;;;;5042477;28;20033;-73
2022/06/10 07:43:30;;;;;;;5.45;1.80;;;;;;;;;;5022776;28;20489;-75
2022/06/10 07:45:56;;;;;;;3.08;2.17;;;;;;;;;;5021510;28;20652;-75
2022/06/10 07:48:22;;;;;;;6.63;1.80;;;;;;;;;;5041149;28;20405;-74
2022/06/10 07:50:49;;;;;;;3.47;2.03;;;;;;;;;;5006252;28;20485;-73
2022/06/10 07:53:15;;;;;;;5.13;1.73;;;;;;;;;;5040601;28;20691;-74
2022/06/10 07:55:44;;;;;;;2.58;1.90;;;;;;;;;;5038090;28;20110;-74
2022/06/10 07:58:12;;;;;;;5.47;1.90;;;;;;;;;;5042776;28;20013;-74
2022/06/10 08:00:37;;;;;;;4.35;2.65;;;;;;;;;;5040173;28;20528;-75
2022/06/10 08:03:05;;;;;;;2.78;1.77;;;;;;;;;;5040467;28;20045;-75
2022/06/10 08:05:31;;;;;;;4.80;2.45;;;;;;;;;;5020528;28;20082;-76
2022/06/10 08:07:57;;;;;;;3.80;2.25;;;;;;;;;;5039421;28;20056;-77
2022/06/10 08:10:26;;;;;;;5.88;2.22;;;;;;;;;;5039950;28;20937;-75
2022/06/10 08:12:52;;;;;;;3.70;2.10;;;;;;;;;;5041191;28;20083;-76
2022/06/10 08:15:20;;;;;;;3.28;2.15;;;;;;;;;;5039788;28;21030;-75
2022/06/10 08:17:46;;;;;;;4.32;2.10;;;;;;;;;;5022463;28;20045;-76
2022/06/10 08:20:18;;;;;;;3.90;2.03;;;;;;;;;;5021974;28;20044;-76
2022/06/10 08:22:43;;;;;;;;;;;;;;;;;;5042756;28;20047;-78
2022/06/10 08:25:10;;;;;;;7.70;2.10;;;;;;;;;;5044382;28;19916;-77
2022/06/10 08:27:36;;;;;;;4.03;2.30;;;;;;;;;;5043013;28;20143;-79
2022/06/10 08:30:07;;;;;;;5.05;2.10;;;;;;;;;;5026086;28;20043;-77
2022/06/10 08:32:33;;;;;;;5.05;1.90;;;;;;;;;;5026090;28;20036;-77
2022/06/10 08:34:58;;;;;;;6.50;2.30;;;;;;;;;;5025249;28;20029;-75
2022/06/10 08:37:24;;;;;;;4.55;2.10;;;;;;;;;;5043947;28;20115;-74
2022/06/10 08:39:49;;;;;;;3.53;2.20;;;;;;;;;;5042369;28;20406;-77
2022/06/10 08:42:41;;;;;;;5.80;2.28;;;;;;;;;;5043936;28;20048;-77
2022/06/10 08:45:32;;;;;;;4.07;2.28;;;;;;;;;;5043793;28;20060;-75
2022/06/10 08:48:06;;;;;;;2.80;1.95;;;;;;;;;;5043441;28;20493;-75
2022/06/10 08:51:09;;;;;;;3.53;1.80;;;;;;;;;;5042581;28;20036;-74
2022/06/10 08:54:20;;;;;;;5.43;1.90;;;;;;;;;;5022294;28;20044;-72
2022/06/10 08:56:49;;;;;;;8.07;2.20;;;;;;;;;;5002133;28;20445;-76
2022/06/10 08:59:15;;;;;;;4.45;2.30;;;;;;;;;;5043157;28;20029;-76
2022/06/10 09:02:10;;;;;;;3.28;2.00;;;;;;;;;;5042768;28;20043;-74
2022/06/10 09:04:57;;;;;;;4.53;2.30;;;;;;;;;;5009861;28;20075;-74
2022/06/10 09:07:30;;;;;;;3.92;2.30;;;;;;;;;;5043235;28;20867;-75
2022/06/10 09:09:58;;;;;;;5.50;2.38;;;;;;;;;;5042785;28;20037;-73
2022/06/10 09:12:54;;;;;;;4.75;1.95;;;;;;;;;;5043441;28;20124;-73
2022/06/10 09:15:22;;;;;;;6.57;2.35;;;;;;;;;;5026161;28;20458;-72
2022/06/10 09:17:55;;;;;;;4.72;2.00;;;;;;;;;;5043180;28;20507;-71
2022/06/10 09:20:31;;;;;;;3.63;2.78;;;;;;;;;;5025031;28;20433;-72
2022/06/10 09:23:08;;;;;;;4.35;2.28;;;;;;;;;;5025824;28;20028;-74
2022/06/10 09:25:41;;;;;;;5.97;1.80;;;;;;;;;;5040080;28;20032;-72
2022/06/10 09:28:07;;;;;;;3.33;1.98;;;;;;;;;;5042236;28;20045;-72
2022/06/10 09:30:43;;;;;;;4.18;2.20;;;;;;;;;;5041184;28;20048;-77
2022/06/10 09:33:23;;;;;;;4.20;2.00;;;;;;;;;;5040239;28;20036;-74
2022/06/10 09:36:02;;;;;;;2.92;1.85;;;;;;;;;;5044487;28;20033;-73
2022/06/10 09:38:44;;;;;;;2.17;1.90;;;;;;;;;;5027983;28;20486;-73
2022/06/10 09:41:39;;;;;;;6.28;2.50;;;;;;;;;;5046405;28;20036;-73
2022/06/10 09:44:11;;;;;;;3.20;1.90;;;;;;;;;;5045715;28;20094;-73
2022/06/10 09:46:42;;;;;;;3.50;2.03;;;;;;;;;;5043015;28;20124;-75
2022/06/10 09:49:34;;;;;;;3.88;2.15;;;;;;;;;;5038231;28;20051;-76
2022/06/10 09:52:00;;;;;;;4.00;2.25;;;;;;;;;;5042590;28;20166;-74
2022/06/10 09:54:31;;;;;;;3.85;2.35;;;;;;;;;;5042597;28;20549;-76
2022/06/10 09:57:18;;;;;;;3.47;2.38;;;;;;;;;;5042089;28;20132;-72
2022/06/10 10:00:13;;;;;;;2.58;1.65;;;;;;;;;;5023597;28;20085;-73
2022/06/10 10:03:02;;;;;;;2.47;1.98;;;;;;;;;;5033277;28;20045;-73
2022/06/10 10:05:53;;;;;;;3.00;1.80;;;;;;;;;;5042245;28;20033;-75
2022/06/10 10:08:25;;;;;;;3.03;1.83;;;;;;;;;;5041698;28;20051;-74
2022/06/10 10:11:09;;;;;;;4.35;1.75;;;;;;;;;;5041731;28;20124;-75
2022/06/10 10:13:34;;;;;;;3.25;1.85;;;;;;;;;;5042195;28;20039;-74
2022/06/10 10:16:18;;;;;;;5.80;2.00;;;;;;;;;;5042593;28;20424;-76
2022/06/10 10:19:19;;;;;;;2.53;2.10;;;;;;;;;;5023493;28;20056;-73
2022/06/10 10:22:12;;;;;;;5.13;2.08;;;;;;;;;;5023265;28;20060;-73
2022/06/10 10:24:41;;;;;;;4.28;1.88;;;;;;;;;;5024888;28;20029;-74
2022/06/10 10:27:25;;;;;;;4.57;2.05;;;;;;;;;;5042704;28;20667;-73
2022/06/10 10:30:01;;;;;;;3.03;1.90;;;;;;;;;;5042494;28;20040;-74
2022/06/10 10:32:33;;;;;;;4.53;2.45;;;;;;;;;;5043380;28;20058;-75
2022/06/10 10:35:17;;;;;;;3.25;1.95;;;;;;;;;;5024754;28;20029;-73
2022/06/10 10:37:51;;;;;;;4.10;1.88;;;;;;;;;;5042631;28;20093;-74
2022/06/10 10:40:20;;;;;;;6.82;1.65;;;;;;;;;;5040273;28;20040;-75
2022/06/10 10:42:50;;;;;;;5.07;1.90;;;;;;;;;;5041004;28;20041;-73
2022/06/10 10:45:35;;;;;;;5.28;1.73;;;;;;;;;;5022791;28;20229;-76
2022/06/10 10:48:14;;;;;;;1.90;1.50;;;;;;;;;;5040660;28;20048;-74
2022/06/10 10:50:50;;;;;;;2.35;1.55;;;;;;;;;;5022644;28;20480;-73
2022/06/10 10:53:24;;;;;;;5.03;1.73;;;;;;;;;;5040262;28;20025;-74
2022/06/10 10:55:55;;;;;;;5.88;1.80;;;;;;;;;;5040729;28;20102;-73
2022/06/10 10:58:31;;;;;;;3.08;1.63;;;;;;;;;;5023598;28;20033;-73
2022/06/10 11:00:59;;;;;;;2.50;1.50;;;;;;;;;;5036727;28;20118;-72
2022/06/10 11:03:35;;;;;;;3.78;1.70;;;;;;;;;;5039679;28;20063;-72
2022/06/10 11:06:05;;;;;;;2.30;1.75;;;;;;;;;;5038859;28;20497;-73
2022/06/10 11:08:37;;;;;;;2.45;1.80;;;;;;;;;;5038157;28;20095;-73
2022/06/10 11:11:02;;;;;;;;;;;;;;;;;;5039468;28;20041;-75
2022/06/10 11:13:34;;;;;;;2.60;1.70;;;;;;;;;;5039464;28;19924;-73
2022/06/10 11:16:22;;;;;;;3.08;1.80;;;;;;;;;;5021969;28;20803;-72
2022/06/10 11:18:50;;;;;;;4.20;1.90;;;;;;;;;;5040585;28;20052;-71
2022/06/10 11:21:16;;;;;;;4.93;1.90;;;;;;;;;;5039402;28;20028;-73
2022/06/10 11:23:54;;;;;;;2.45;1.88;;;;;;;;;;5043163;28;20135;-74
2022/06/10 11:26:22;;;;;;;2.67;1.80;;;;;;;;;;5020327;28;20147;-74
2022/06/10 11:28:58;;;;;;;3.63;1.85;;;;;;;;;;5039775;28;20044;-75
2022/06/10 11:31:30;;;;;;;2.13;1.67;;;;;;;;;;5038657;28;20107;-74
2022/06/10 11:33:58;;;;;;;2.13;1.70;;;;;;;;;;5039895;28;20563;-72
2022/06/10 11:36:26;;;;;;;1.63;1.40;;;;;;;;;;5019395;28;20507;-73
2022/06/10 11:39:05;;;;;;;3.28;1.55;;;;;;;;;;5021587;28;20035;-73
2022/06/10 11:41:32;;;;;;;2.63;2.03;;;;;;;;;;5021781;28;20037;-73
2022/06/10 11:44:04;;;;;;;5.15;1.70;;;;;;;;;;5037898;28;20040;-73
2022/06/10 11:46:35;;;;;;;3.80;1.95;;;;;;;;;;5038352;28;20048;-73
2022/06/10 11:49:04;;;;;;;;;;;;;;;;;;5039130;28;20398;-72
2022/06/10 11:51:42;;;;;;;4.13;1.70;;;;;;;;;;5038505;28;19924;-73
2022/06/10 11:54:34;;;;;;;3.15;1.70;;;;;;;;;;5022237;28;20029;-76
2022/06/10 12:00:34;;;;;;;3.20;2.00;;;;;;;;;;5004826;28;20052;-75
2022/06/10 12:03:32;;;;;;;2.38;1.77;;;;;;;;;;5044141;28;20515;-72
2022/06/10 12:06:16;;;;;;;3.95;1.90;;;;;;;;;;5042901;28;20124;-73
2022/06/10 12:08:54;;;;;;;4.07;2.05;;;;;;;;;;5041607;28;20033;-71
2022/06/10 12:11:36;;;;;;;4.45;1.80;;;;;;;;;;5041958;28;20053;-73
2022/06/10 12:14:10;;;;;;;2.33;2.08;;;;;;;;;;5043777;28;20486;-73
2022/06/10 12:16:36;;;;;;;4.70;2.20;;;;;;;;;;5042024;28;20040;-71
2022/06/10 12:19:06;;;;;;;4.18;2.08;;;;;;;;;;5042969;28;20028;-74
2022/06/10 12:21:32;;;;;;;2.42;2.17;;;;;;;;;;5040432;28;20060;-72
2022/06/10 12:23:58;;;;;;;5.97;1.83;;;;;;;;;;5042693;28;20047;-72
2022/06/10 12:26:50;;;;;;;4.25;2.13;;;;;;;;;;5041636;28;20596;-72
2022/06/10 12:29:49;;;;;;;8.18;2.30;;;;;;;;;;5042056;28;20481;-72
2022/06/10 12:32:20;;;;;;;5.68;2.20;;;;;;;;;;5041973;28;20106;-71
2022/06/10 12:35:00;;;;;;;5.18;2.15;;;;;;;;;;5041473;28;20051;-72
2022/06/10 12:37:50;;;;;;;4.40;1.80;;;;;;;;;;5040927;28;21205;-71
2022/06/10 12:40:25;;;;;;;4.88;2.20;;;;;;;;;;5040129;28;20118;-71
2022/06/10 12:42:57;;;;;;;2.53;2.13;;;;;;;;;;5042048;28;20052;-71
2022/06/10 12:45:30;;;;;;;8.55;2.17;;;;;;;;;;5042056;28;20033;-71
2022/06/10 12:47:59;;;;;;;2.60;2.00;;;;;;;;;;5023928;28;20914;-71
2022/06/10 12:50:33;;;;;;;5.35;2.00;;;;;;;;;;5024349;28;20080;-71
2022/06/10 12:53:19;;;;;;;4.15;2.20;;;;;;;;;;5041126;28;20052;-70
2022/06/10 12:56:23;;;;;;;3.25;1.85;;;;;;;;;;5041966;28;20555;-70
2022/06/10 12:58:55;;;;;;;4.22;1.90;;;;;;;;;;5041575;28;20519;-71
2022/06/10 13:01:44;;;;;;;3.85;1.73;;;;;;;;;;5040668;28;20114;-71
2022/06/10 13:04:13;;;;;;;3.05;1.80;;;;;;;;;;5039575;28;20047;-70
2022/06/10 13:06:41;;;;;;;3.95;1.90;;;;;;;;;;5022085;28;20037;-71
2022/06/10 13:09:10;;;;;;;4.45;1.90;;;;;;;;;;5041604;28;20037;-70
2022/06/10 13:11:47;;;;;;;3.58;1.98;;;;;;;;;;5041521;28;20029;-70
2022/06/10 13:14:34;;;;;;;4.97;2.20;;;;;;;;;;5040557;28;20041;-70
2022/06/10 13:16:59;;;;;;;6.28;2.05;;;;;;;;;;5041669;28;20486;-71
2022/06/10 13:19:30;;;;;;;3.28;2.08;;;;;;;;;;5041757;28;20082;-71
2022/06/10 13:21:58;;;;;;;4.32;2.20;;;;;;;;;;5042285;28;20452;-70
2022/06/10 13:24:23;;;;;;;4.07;1.63;;;;;;;;;;5041983;28;20040;-70
2022/06/10 13:26:50;;;;;;;2.28;2.08;;;;;;;;;;5024418;28;20461;-72
2022/06/10 13:29:19;;;;;;;3.45;1.80;;;;;;;;;;5042902;28;20489;-72
2022/06/10 13:31:51;;;;;;;2.08;1.70;;;;;;;;;;5043600;28;20086;-72
2022/06/10 13:34:30;;;;;;;2.25;1.70;;;;;;;;;;5042639;28;20119;-72
2022/06/10 13:37:02;;;;;;;3.47;1.77;;;;;;;;;;5040318;28;20045;-73
2022/06/10 13:39:34;;;;;;;2.50;1.90;;;;;;;;;;5040772;28;20029;-74
2022/06/10 13:42:02;;;;;;;7.60;2.10;;;;;;;;;;5040944;28;20120;-74
2022/06/10 13:44:36;;;;;;;2.20;2.00;;;;;;;;;;5040544;28;20044;-73
2022/06/10 13:47:24;;;;;;;5.15;2.03;;;;;;;;;;5040120;28;20079;-73
2022/06/10 13:52:42;;;;;;;2.75;1.77;;;;;;;;;;5042744;28;20198;-73
2022/06/10 13:55:40;;;;;;;2.95;1.90;;;;;;;;;;5041891;28;20037;-74
2022/06/10 13:58:19;;;;;;;2.45;1.60;;;;;;;;;;5024618;28;20032;-72
2022/06/10 14:00:46;;;;;;;2.22;1.33;;;;;;;;;;5023464;28;20317;-72
2022/06/10 14:03:28;;;;;;;2.78;1.70;;;;;;;;;;5042571;28;20025;-72
2022/06/10 14:06:03;;;;;;;3.83;1.80;;;;;;;;;;5041157;28;20936;-74
2022/06/10 14:08:35;;;;;;;2.72;1.60;;;;;;;;;;5043186;28;20043;-73
2022/06/10 14:11:12;;;;;;;5.70;1.83;;;;;;;;;;5040915;28;20079;-73
2022/06/10 14:13:48;;;;;;;3.90;1.60;;;;;;;;;;5042448;28;20090;-71
2022/06/10 14:16:15;;;;;;;1.65;1.40;;;;;;;;;;5041228;28;20048;-71
2022/06/10 14:18:44;;;;;;;3.13;1.70;;;;;;;;;;5045550;28;20025;-73
2022/06/10 14:21:12;;;;;;;2.47;1.73;;;;;;;;;;5005759;28;20036;-73
2022/06/10 14:24:00;;;;;;;2.17;1.70;;;;;;;;;;5042456;28;20075;-72
2022/06/10 14:26:26;;;;;;;2.20;1.85;;;;;;;;;;5041904;28;20107;-73
2022/06/10 14:29:12;;;;;;;2.67;1.70;;;;;;;;;;5040682;28;20495;-72
2022/06/10 14:31:42;;;;;;;7.53;1.92;;;;;;;;;;5039359;28;20077;-72
2022/06/10 14:34:18;;;;;;;3.57;1.77;;;;;;;;;;5040339;28;20060;-72
2022/06/10 14:37:18;;;;;;;3.42;1.70;;;;;;;;;;5021803;28;20097;-72
2022/06/10 14:40:02;;;;;;;4.03;1.55;;;;;;;;;;5008070;28;20221;-75
2022/06/10 14:42:32;;;;;;;5.63;1.73;;;;;;;;;;5036770;28;20123;-74
2022/06/10 14:44:59;;;;;;;4.07;1.60;;;;;;;;;;5036383;28;20055;-74
2022/06/10 14:47:29;;;;;;;2.47;1.70;;;;;;;;;;5039583;28;20116;-74
2022/06/10 14:50:04;;;;;;;3.53;1.80;;;;;;;;;;5021042;28;20064;-75
2022/06/10 14:52:45;;;;;;;1.70;1.60;;;;;;;;;;5040318;28;20060;-75
2022/06/10 14:55:21;;;;;;;3.63;1.85;;;;;;;;;;5021639;28;20080;-72
2022/06/10 14:57:49;;;;;;;4.50;1.60;;;;;;;;;;5040429;28;20089;-73
2022/06/10 15:00:17;;;;;;;4.97;1.75;;;;;;;;;;5038595;28;20057;-73
2022/06/10 15:02:45;;;;;;;2.70;1.40;;;;;;;;;;5039892;28;20036;-73
2022/06/10 15:07:55;;;;;;;1.95;1.45;;;;;;;;;;5040164;28;20512;-73
2022/06/10 15:10:21;;;;;;;2.00;1.55;;;;;;;;;;5038833;28;20045;-73
2022/06/10 15:12:48;;;;;;;5.63;2.67;;;;;;;;;;5040330;28;20028;-72
2022/06/10 15:15:14;;;;;;;1.60;1.30;;;;;;;;;;5039537;28;20033;-73
2022/06/10 15:17:40;;;;;;;3.15;1.65;;;;;;;;;;5021016;28;20067;-73
2022/06/10 15:20:07;;;;;;;3.30;1.38;;;;;;;;;;5020807;28;21083;-72
2022/06/10 15:22:44;;;;;;;7.07;1.90;;;;;;;;;;5039670;28;20037;-72
2022/06/10 15:25:20;;;;;;;2.33;1.75;;;;;;;;;;5040035;28;20389;-71
2022/06/10 15:27:46;;;;;;;2.05;1.50;;;;;;;;;;5039176;28;20048;-72
2022/06/10 15:30:21;;;;;;;3.38;1.70;;;;;;;;;;5039563;28;20025;-72
2022/06/10 15:32:46;;;;;;;5.05;1.80;;;;;;;;;;5024175;28;20158;-73